Time;durP1;ratioP1;P1;durP2;ratioP2;P2;SDS_P1;SDS_P2;PMS_P1;PMS_P2;Temp;Humidity;BMP_temperature;BMP_pressure;BME280_temperature;BME280_humidity;BME280_pressure;Samples;Min_cycle;Max_cycle;Signal;HPM_P1;HPM_P2
2022/09/24 00:01:19;;;;;;;7.70;7.00;;;;;;;10.24;100.00;99820.94;5013690;28;20787;-71
2022/09/24 00:03:58;;;;;;;7.23;6.53;;;;;;;10.28;100.00;99826.75;5008603;28;20206;-71
2022/09/24 00:06:23;;;;;;;9.03;7.03;;;;;;;10.33;100.00;99822.16;5025005;28;20190;-72
2022/09/24 00:08:56;;;;;;;9.63;7.30;;;;;;;10.27;100.00;99822.50;5018318;28;20191;-71
2022/09/24 00:11:24;;;;;;;7.73;7.03;;;;;;;10.33;100.00;99815.28;5006500;28;20566;-71
2022/09/24 00:13:51;;;;;;;7.63;6.90;;;;;;;10.28;100.00;99816.44;5015067;28;20190;-72
2022/09/24 00:16:19;;;;;;;10.37;7.20;;;;;;;10.22;100.00;99819.38;5017403;28;20219;-72
2022/09/24 00:18:47;;;;;;;7.97;7.27;;;;;;;10.25;100.00;99829.50;5017040;28;20623;-71
2022/09/24 00:21:17;;;;;;;7.73;7.03;;;;;;;10.24;100.00;99820.13;5002127;28;20643;-73
2022/09/24 00:23:42;;;;;;;8.87;6.80;;;;;;;10.06;100.00;99816.84;5020167;28;20211;-71
2022/09/24 00:28:54;;;;;;;7.70;6.80;;;;;;;10.13;100.00;99820.75;5015915;28;20193;-71
2022/09/24 00:31:19;;;;;;;9.10;6.60;;;;;;;10.08;100.00;99828.69;5005862;28;20233;-70
2022/09/24 00:33:44;;;;;;;9.37;7.27;;;;;;;10.04;100.00;99824.66;5019325;28;20507;-71
2022/09/24 00:36:13;;;;;;;8.13;7.33;;;;;;;9.92;100.00;99827.91;5006056;28;20210;-71
2022/09/24 00:38:39;;;;;;;9.23;6.93;;;;;;;9.89;100.00;99823.78;5009864;28;20183;-70
2022/09/24 00:41:04;;;;;;;7.10;6.47;;;;;;;9.78;100.00;99815.84;5012014;28;20244;-71
2022/09/24 00:43:33;;;;;;;7.67;6.50;;;;;;;9.82;100.00;99812.19;5033451;28;20217;-70
2022/09/24 00:46:13;;;;;;;8.20;6.97;;;;;;;9.75;100.00;99811.72;5009281;28;20249;-70
2022/09/24 00:48:45;;;;;;;9.40;7.60;;;;;;;9.83;100.00;99816.41;5004645;28;20178;-70
2022/09/24 00:51:18;;;;;;;10.63;7.33;;;;;;;9.88;100.00;99811.03;5009299;28;20253;-70
2022/09/24 00:53:46;;;;;;;10.13;7.57;;;;;;;9.96;100.00;99814.81;5017703;28;20271;-71
2022/09/24 00:56:16;;;;;;;11.00;7.67;;;;;;;9.87;100.00;99817.06;5032605;28;20637;-71
2022/09/24 00:58:47;;;;;;;10.23;7.80;;;;;;;9.74;100.00;99809.25;5028102;28;20362;-70
2022/09/24 01:01:13;;;;;;;8.50;7.60;;;;;;;9.75;100.00;99811.72;5006068;28;20309;-70
2022/09/24 01:03:41;;;;;;;8.87;8.03;;;;;;;9.73;100.00;99805.00;5033395;28;20206;-80
2022/09/24 01:06:08;;;;;;;9.23;7.63;;;;;;;9.78;100.00;99808.97;5012041;28;20182;-71
2022/09/24 01:08:33;;;;;;;7.90;7.20;;;;;;;9.84;100.00;99800.09;5018549;28;20209;-72
2022/09/24 01:11:22;;;;;;;10.77;8.40;;;;;;;9.78;100.00;99790.16;5010427;28;20688;-71
2022/09/24 01:14:18;;;;;;;7.93;7.20;;;;;;;9.74;100.00;99789.50;5022161;28;20190;-73
2022/09/24 01:17:09;;;;;;;8.30;7.40;;;;;;;9.68;100.00;99784.72;5022089;28;20655;-71
2022/09/24 01:19:37;;;;;;;8.70;7.80;;;;;;;9.73;100.00;99787.84;5016066;28;20190;-71
2022/09/24 01:22:22;;;;;;;8.50;7.07;;;;;;;9.74;100.00;99778.41;5018091;28;20590;-75
2022/09/24 01:24:59;;;;;;;9.37;7.90;;;;;;;9.68;100.00;99777.81;5030590;28;20228;-71
2022/09/24 01:27:56;;;;;;;10.00;8.70;;;;;;;9.46;100.00;99775.63;5015671;28;20210;-72
2022/09/24 01:30:21;;;;;;;8.93;8.03;;;;;;;9.63;100.00;99774.69;5001169;28;20191;-70
2022/09/24 01:33:06;;;;;;;10.50;8.47;;;;;;;9.55;100.00;99770.91;5009767;28;20226;-70
2022/09/24 01:35:37;;;;;;;9.20;7.43;;;;;;;9.40;100.00;99777.72;5024386;28;20174;-70
2022/09/24 01:38:08;;;;;;;8.97;7.40;;;;;;;9.53;100.00;99771.00;5013446;28;20183;-73
2022/09/24 01:40:36;;;;;;;10.20;8.33;;;;;;;9.53;100.00;99768.41;5009726;28;20234;-72
2022/09/24 01:43:04;;;;;;;9.10;8.20;;;;;;;9.50;100.00;99772.00;5020932;28;20289;-71
2022/09/24 01:45:34;;;;;;;10.47;8.43;;;;;;;9.42;100.00;99769.00;5023970;28;20240;-71
2022/09/24 01:48:00;;;;;;;10.13;7.97;;;;;;;9.26;100.00;99765.63;5023210;28;20587;-71
2022/09/24 01:50:29;;;;;;;9.67;8.43;;;;;;;9.23;100.00;99764.06;5014865;28;20238;-71
2022/09/24 01:53:07;;;;;;;10.33;8.07;;;;;;;9.08;100.00;99760.59;5023076;28;20182;-71
2022/09/24 01:55:37;;;;;;;10.30;8.43;;;;;;;9.03;100.00;99753.13;5027497;28;20213;-72
2022/09/24 01:58:15;;;;;;;10.23;8.00;;;;;;;9.02;100.00;99758.34;5023932;28;20251;-72
2022/09/24 02:00:45;;;;;;;10.30;8.77;;;;;;;8.94;100.00;99750.22;5025149;28;20229;-71
2022/09/24 02:03:15;;;;;;;12.20;8.07;;;;;;;8.80;100.00;99753.53;5021339;28;20359;-71
2022/09/24 02:05:47;;;;;;;8.50;7.70;;;;;;;8.78;100.00;99743.38;5026896;28;20186;-71
2022/09/24 02:08:33;;;;;;;11.60;8.23;;;;;;;8.67;100.00;99746.47;5019275;28;20194;-72
2022/09/24 02:11:07;;;;;;;8.10;7.37;;;;;;;8.67;100.00;99743.91;5009811;28;20233;-71
2022/09/24 02:13:48;;;;;;;9.23;8.23;;;;;;;8.62;100.00;99739.94;5011728;28;20200;-73
2022/09/24 02:16:17;;;;;;;10.67;8.90;;;;;;;8.64;100.00;99740.69;5026367;28;20277;-72
2022/09/24 02:18:50;;;;;;;10.70;9.70;;;;;;;8.60;100.00;99741.75;5021183;28;20193;-72
2022/09/24 02:21:18;;;;;;;10.30;9.27;;;;;;;8.52;100.00;99750.66;5012014;28;20296;-71
2022/09/24 02:23:48;;;;;;;13.27;8.73;;;;;;;8.38;100.00;99745.38;5019047;28;20204;-70
2022/09/24 02:26:13;;;;;;;9.87;8.90;;;;;;;8.42;100.00;99746.88;5018416;28;20190;-71
2022/09/24 02:28:45;;;;;;;9.80;8.80;;;;;;;8.31;100.00;99747.44;5020740;28;20187;-71
2022/09/24 02:31:16;;;;;;;10.33;8.87;;;;;;;8.26;100.00;99754.53;5004538;28;20718;-71
2022/09/24 02:36:32;;;;;;;10.53;9.43;;;;;;;8.19;100.00;99760.88;5026138;28;20193;-71
2022/09/24 02:38:57;;;;;;;10.30;8.40;;;;;;;8.16;100.00;99769.53;5015263;28;20183;-71
2022/09/24 02:41:24;;;;;;;10.40;9.40;;;;;;;8.15;100.00;99765.31;5017325;28;20239;-73
2022/09/24 02:43:50;;;;;;;10.43;8.43;;;;;;;8.05;100.00;99761.53;5020704;28;20224;-71
2022/09/24 02:46:15;;;;;;;9.50;8.60;;;;;;;8.12;100.00;99756.97;5009737;28;20276;-71
2022/09/24 02:48:43;;;;;;;10.07;8.90;;;;;;;8.06;100.00;99760.63;5015561;28;20229;-70
2022/09/24 02:51:09;;;;;;;9.87;8.47;;;;;;;8.00;100.00;99758.38;5020782;28;20285;-71
2022/09/24 02:53:37;;;;;;;10.23;8.90;;;;;;;8.04;100.00;99758.16;5020790;28;20202;-71
2022/09/24 02:56:03;;;;;;;9.80;8.90;;;;;;;7.95;100.00;99750.94;5013663;28;20177;-71
2022/09/24 02:58:32;;;;;;;9.93;9.03;;;;;;;8.00;100.00;99745.56;5012283;28;20561;-71
2022/09/24 03:00:58;;;;;;;9.70;8.10;;;;;;;7.91;100.00;99739.16;4993194;28;20360;-73
2022/09/24 03:03:23;;;;;;;8.97;8.07;;;;;;;7.90;100.00;99750.31;5009528;28;20654;-70
2022/09/24 03:05:51;;;;;;;9.27;7.87;;;;;;;7.92;100.00;99753.63;5029521;28;20550;-70
2022/09/24 03:08:23;;;;;;;8.43;7.53;;;;;;;7.77;100.00;99759.53;5012219;28;20197;-70
2022/09/24 03:10:52;;;;;;;9.03;8.10;;;;;;;7.90;100.00;99753.72;5011029;28;20232;-71
2022/09/24 03:13:18;;;;;;;9.17;7.57;;;;;;;7.97;100.00;99761.09;5006957;28;20650;-72
2022/09/24 03:15:47;;;;;;;11.70;7.90;;;;;;;7.90;100.00;99756.28;5010972;28;20240;-71
2022/09/24 03:18:13;;;;;;;8.43;7.63;;;;;;;7.92;100.00;99751.06;5020057;28;20208;-70
2022/09/24 03:20:38;;;;;;;8.53;7.73;;;;;;;7.88;100.00;99742.72;5015854;28;20739;-72
2022/09/24 03:23:04;;;;;;;9.03;8.13;;;;;;;7.88;100.00;99742.72;5027153;28;20229;-74
2022/09/24 03:25:29;;;;;;;9.40;8.03;;;;;;;7.88;100.00;99734.22;5008353;28;20281;-70
2022/09/24 03:27:54;;;;;;;9.10;7.60;;;;;;;7.84;100.00;99730.13;5018915;28;20185;-70
2022/09/24 03:33:04;;;;;;;8.83;7.97;;;;;;;7.70;100.00;99723.97;5015838;28;20196;-71
2022/09/24 03:35:29;;;;;;;9.30;8.13;;;;;;;7.77;100.00;99726.25;5009821;28;20192;-71
2022/09/24 03:37:54;;;;;;;10.60;8.17;;;;;;;7.78;100.00;99723.59;5020249;28;20229;-71
2022/09/24 03:40:19;;;;;;;9.23;8.40;;;;;;;7.82;100.00;99724.28;5014799;28;20550;-71
2022/09/24 03:42:45;;;;;;;9.50;8.50;;;;;;;7.91;100.00;99716.13;5012344;28;20181;-71
2022/09/24 03:45:10;;;;;;;9.53;8.60;;;;;;;7.96;100.00;99724.41;5021415;28;20266;-70
2022/09/24 03:47:36;;;;;;;9.93;9.03;;;;;;;7.98;100.00;99714.09;5019567;28;20202;-71
2022/09/24 03:50:04;;;;;;;9.10;8.27;;;;;;;7.81;100.00;99715.75;5010558;28;20192;-71
2022/09/24 03:52:29;;;;;;;9.03;8.20;;;;;;;7.92;100.00;99720.34;4981377;28;20437;-72
2022/09/24 03:54:54;;;;;;;10.37;8.60;;;;;;;8.00;100.00;99717.41;5011522;28;20331;-71
2022/09/24 03:57:22;;;;;;;9.00;8.20;;;;;;;8.06;100.00;99715.38;5015688;28;20189;-72
2022/09/24 03:59:47;;;;;;;12.57;9.10;;;;;;;8.11;100.00;99710.00;5017854;28;20200;-71
2022/09/24 04:02:13;;;;;;;9.53;8.60;;;;;;;8.09;100.00;99711.81;5025803;28;20676;-71
2022/09/24 04:04:39;;;;;;;8.93;7.90;;;;;;;8.17;100.00;99712.25;5014934;28;20581;-71
2022/09/24 04:07:04;;;;;;;10.90;9.93;;;;;;;8.21;100.00;99713.75;5015613;28;20600;-74
2022/09/24 04:09:30;;;;;;;10.40;9.40;;;;;;;8.21;100.00;99713.75;5025685;28;20225;-71
2022/09/24 04:11:56;;;;;;;9.53;8.63;;;;;;;8.23;100.00;99708.56;5010115;28;20236;-74
2022/09/24 04:14:21;;;;;;;10.37;7.93;;;;;;;8.17;100.00;99708.88;5015694;28;20647;-71
2022/09/24 04:16:47;;;;;;;8.97;8.17;;;;;;;7.95;100.00;99709.13;5027459;28;20185;-72
2022/09/24 04:19:18;;;;;;;8.37;7.60;;;;;;;7.97;100.00;99707.31;5008254;28;20187;-78
2022/09/24 04:21:46;;;;;;;8.80;7.90;;;;;;;7.97;100.00;99712.44;4999187;28;20256;-71
2022/09/24 04:24:12;;;;;;;8.80;7.53;;;;;;;8.00;100.00;99697.75;5008039;28;20197;-71
2022/09/24 04:26:40;;;;;;;9.40;8.30;;;;;;;7.97;100.00;99694.50;5002359;28;20240;-70
2022/09/24 04:29:05;;;;;;;8.47;7.23;;;;;;;7.99;100.00;99692.69;5011881;28;20179;-71
2022/09/24 04:31:33;;;;;;;8.60;7.70;;;;;;;8.00;100.00;99694.34;5005710;28;20319;-71
2022/09/24 04:33:58;;;;;;;8.53;7.73;;;;;;;8.03;100.00;99695.03;5016579;28;20193;-75
2022/09/24 04:36:24;;;;;;;8.20;7.40;;;;;;;8.02;100.00;99690.78;5013364;28;20190;-78
2022/09/24 04:38:49;;;;;;;8.07;7.30;;;;;;;8.08;100.00;99692.22;5013317;28;20191;-72
2022/09/24 04:41:15;;;;;;;8.37;7.63;;;;;;;8.07;100.00;99698.25;5015087;28;20221;-72
2022/09/24 04:43:41;;;;;;;8.00;7.23;;;;;;;8.02;100.00;99695.91;5022174;28;20221;-71
2022/09/24 04:46:08;;;;;;;8.07;6.70;;;;;;;7.98;100.00;99694.44;5021737;28;20229;-71
2022/09/24 04:48:37;;;;;;;9.17;7.33;;;;;;;7.94;100.00;99697.22;5025385;28;20193;-72
2022/09/24 04:51:06;;;;;;;9.50;7.37;;;;;;;7.93;100.00;99693.84;5006160;28;20236;-71
2022/09/24 04:53:34;;;;;;;8.53;7.73;;;;;;;7.88;100.00;99693.25;5013305;28;20286;-71
2022/09/24 04:55:59;;;;;;;8.60;7.73;;;;;;;7.80;100.00;99690.22;5017426;28;20186;-73
2022/09/24 04:58:25;;;;;;;8.33;7.53;;;;;;;7.70;100.00;99695.81;5021759;28;20204;-71
2022/09/24 05:00:56;;;;;;;8.27;7.47;;;;;;;7.68;100.00;99687.38;5018662;28;20296;-71
2022/09/24 05:03:24;;;;;;;9.73;7.47;;;;;;;7.67;100.00;99684.91;5014308;28;20213;-71
2022/09/24 05:05:49;;;;;;;7.97;7.27;;;;;;;7.77;100.00;99693.75;5015592;28;20200;-72
2022/09/24 05:08:17;;;;;;;9.70;7.80;;;;;;;7.79;100.00;99691.97;5019369;28;20178;-71
2022/09/24 05:10:45;;;;;;;11.23;8.07;;;;;;;7.61;100.00;99696.25;5017138;28;20691;-71
2022/09/24 05:13:10;;;;;;;8.27;7.50;;;;;;;7.53;100.00;99701.75;5025783;28;20190;-71
2022/09/24 05:15:35;;;;;;;9.13;8.03;;;;;;;7.71;100.00;99700.00;5029477;28;20264;-71
2022/09/24 05:18:05;;;;;;;8.80;7.90;;;;;;;7.69;100.00;99704.41;5013161;28;20204;-71
2022/09/24 05:20:31;;;;;;;10.83;8.33;;;;;;;7.83;100.00;99696.03;5011806;28;20251;-71
2022/09/24 05:22:56;;;;;;;13.67;8.33;;;;;;;7.92;100.00;99697.28;5015946;28;20213;-71
2022/09/24 05:25:24;;;;;;;10.47;7.90;;;;;;;7.91;100.00;99704.16;5022825;28;20179;-71
2022/09/24 05:27:52;;;;;;;10.50;9.50;;;;;;;7.93;100.00;99706.66;5011000;28;20238;-72
2022/09/24 05:30:19;;;;;;;9.47;8.53;;;;;;;7.99;100.00;99708.06;5013920;28;20184;-72
2022/09/24 05:32:48;;;;;;;8.77;8.00;;;;;;;8.04;100.00;99719.72;5026660;28;20197;-71
2022/09/24 05:35:14;;;;;;;8.67;7.80;;;;;;;8.05;100.00;99725.66;5015711;28;20287;-71
2022/09/24 05:37:41;;;;;;;8.30;7.23;;;;;;;8.11;100.00;99717.69;5014791;28;20216;-72
2022/09/24 05:42:58;;;;;;;8.20;7.33;;;;;;;8.28;100.00;99731.41;5036609;28;20191;-71
2022/09/24 05:45:24;;;;;;;8.97;7.33;;;;;;;8.40;100.00;99725.63;5023839;28;20284;-72
2022/09/24 05:47:49;;;;;;;8.30;7.40;;;;;;;8.49;100.00;99726.94;5027991;28;20189;-72
2022/09/24 05:50:17;;;;;;;8.47;7.60;;;;;;;8.60;100.00;99727.19;5013598;28;20660;-71
2022/09/24 05:52:43;;;;;;;7.50;6.83;;;;;;;8.68;100.00;99730.19;5019332;28;20658;-72
2022/09/24 05:55:09;;;;;;;9.17;7.27;;;;;;;8.72;100.00;99736.00;5017716;28;20228;-72
2022/09/24 05:57:37;;;;;;;7.90;7.10;;;;;;;8.81;100.00;99730.34;5019114;28;20538;-77
2022/09/24 06:00:06;;;;;;;8.77;8.00;;;;;;;8.71;100.00;99730.03;5013090;28;20532;-72
2022/09/24 06:02:31;;;;;;;7.97;7.27;;;;;;;8.92;100.00;99734.09;5020364;28;20199;-75
2022/09/24 06:04:56;;;;;;;7.90;7.10;;;;;;;8.97;100.00;99727.81;5012559;28;20267;-70
2022/09/24 06:07:22;;;;;;;8.87;7.97;;;;;;;9.00;100.00;99734.50;5013464;28;20190;-71
2022/09/24 06:09:47;;;;;;;8.90;8.00;;;;;;;9.24;100.00;99737.50;5013643;28;20183;-70
2022/09/24 06:12:16;;;;;;;8.37;7.57;;;;;;;9.25;100.00;99734.00;5012334;28;20217;-71
2022/09/24 06:14:41;;;;;;;7.90;7.20;;;;;;;9.31;100.00;99720.81;5010691;28;20191;-70
2022/09/24 06:17:11;;;;;;;7.40;6.77;;;;;;;9.33;100.00;99720.75;5019659;28;20201;-70
2022/09/24 06:19:42;;;;;;;7.40;6.40;;;;;;;9.28;100.00;99721.00;5013727;28;20284;-72
2022/09/24 06:22:07;;;;;;;6.97;6.37;;;;;;;9.58;100.00;99720.19;5009235;28;20243;-70
2022/09/24 06:24:33;;;;;;;8.37;7.40;;;;;;;9.74;100.00;99719.34;5019211;28;20198;-70
2022/09/24 06:27:01;;;;;;;7.87;6.90;;;;;;;9.93;100.00;99719.91;5021885;28;20210;-73
2022/09/24 06:29:30;;;;;;;9.00;6.90;;;;;;;9.95;100.00;99715.53;5026785;28;20197;-70
2022/09/24 06:32:00;;;;;;;13.33;6.97;;;;;;;10.17;100.00;99721.97;5003125;28;20308;-71
2022/09/24 06:34:26;;;;;;;15.33;6.53;;;;;;;10.48;100.00;99721.00;5012497;28;20269;-71
2022/09/24 06:36:58;;;;;;;7.63;6.30;;;;;;;10.82;100.00;99720.72;5022981;28;20611;-71
2022/09/24 06:39:26;;;;;;;7.33;6.07;;;;;;;11.17;100.00;99722.81;5015657;28;20297;-74
2022/09/24 06:41:52;;;;;;;10.17;6.37;;;;;;;11.38;100.00;99723.19;5015829;28;20705;-72
2022/09/24 06:44:20;;;;;;;6.00;5.40;;;;;;;11.54;100.00;99730.78;5014980;28;20237;-72
2022/09/24 06:46:45;;;;;;;9.90;5.67;;;;;;;11.56;100.00;99730.66;5026537;28;20640;-72
2022/09/24 06:49:11;;;;;;;6.20;5.60;;;;;;;11.43;100.00;99728.88;5020842;28;20265;-72
2022/09/24 06:51:36;;;;;;;5.50;5.00;;;;;;;11.54;100.00;99732.53;5018369;28;20295;-74
2022/09/24 06:54:02;;;;;;;6.03;5.43;;;;;;;11.50;100.00;99723.34;5020828;28;20182;-77
2022/09/24 06:56:29;;;;;;;7.83;4.73;;;;;;;11.50;100.00;99726.75;5013620;28;20282;-72
2022/09/24 06:58:55;;;;;;;4.80;4.37;;;;;;;11.57;100.00;99727.16;5017137;28;20193;-72
2022/09/24 07:01:20;;;;;;;7.70;4.47;;;;;;;11.74;100.00;99726.91;4997713;28;20590;-72
2022/09/24 07:03:45;;;;;;;4.30;3.90;;;;;;;11.94;100.00;99717.03;5016716;28;20205;-71
2022/09/24 07:06:10;;;;;;;7.70;4.00;;;;;;;11.95;100.00;99714.34;5030254;28;20182;-72
2022/09/24 07:08:38;;;;;;;3.90;3.60;;;;;;;12.06;100.00;99718.81;5013104;28;20544;-71
2022/09/24 07:11:07;;;;;;;3.97;3.57;;;;;;;12.80;100.00;99712.13;5020628;28;20781;-74
2022/09/24 07:13:36;;;;;;;4.67;3.23;;;;;;;14.20;100.00;99720.09;5018767;28;20534;-73
2022/09/24 07:16:01;;;;;;;5.00;2.93;;;;;;;15.32;91.96;99727.03;4999966;28;20225;-73
2022/09/24 07:18:27;;;;;;;6.43;3.13;;;;;;;16.44;78.12;99727.31;5004689;28;20654;-73
2022/09/24 07:20:53;;;;;;;3.83;2.90;;;;;;;16.05;75.88;99729.75;4996120;28;20729;-73
2022/09/24 07:23:22;;;;;;;5.97;3.07;;;;;;;14.75;82.27;99734.09;4998705;28;20234;-73
2022/09/24 07:25:49;;;;;;;3.50;2.90;;;;;;;14.39;90.60;99741.97;4993363;28;20187;-73
2022/09/24 07:28:15;;;;;;;4.30;3.07;;;;;;;14.71;91.20;99738.72;4994611;28;20186;-74
2022/09/24 07:30:40;;;;;;;4.10;3.20;;;;;;;16.19;82.05;99738.97;4965177;28;20229;-75
2022/09/24 07:33:08;;;;;;;5.30;3.13;;;;;;;17.20;72.25;99735.59;4986554;28;20174;-73
2022/09/24 07:35:37;;;;;;;6.00;3.23;;;;;;;17.69;65.44;99743.41;4993727;28;20314;-74
2022/09/24 07:38:05;;;;;;;4.03;2.93;;;;;;;17.11;65.33;99737.22;5009712;28;20233;-74
2022/09/24 07:40:31;;;;;;;3.60;2.80;;;;;;;16.31;72.17;99744.91;5004094;28;20577;-73
2022/09/24 07:42:59;;;;;;;9.97;3.60;;;;;;;15.84;77.07;99736.69;5010430;28;20198;-70
2022/09/24 07:45:28;;;;;;;6.80;3.70;;;;;;;15.46;80.78;99731.09;5011488;28;20362;-71
2022/09/24 07:48:01;;;;;;;4.27;3.60;;;;;;;14.96;84.94;99736.78;5010076;28;20174;-75
2022/09/24 07:50:29;;;;;;;4.00;3.70;;;;;;;14.97;87.41;99736.66;5002981;28;20244;-77
2022/09/24 07:52:54;;;;;;;7.00;3.80;;;;;;;14.82;89.41;99748.19;4997239;28;20183;-72
2022/09/24 07:55:20;;;;;;;4.33;3.87;;;;;;;14.54;91.28;99734.78;5003673;28;20190;-70
2022/09/24 07:57:50;;;;;;;5.43;4.43;;;;;;;14.32;92.43;99748.53;5005879;28;20533;-71
2022/09/24 08:00:20;;;;;;;7.63;4.20;;;;;;;14.21;94.23;99746.75;5002457;28;20309;-69
2022/09/24 08:02:46;;;;;;;4.13;3.83;;;;;;;14.16;96.63;99747.09;5029351;28;20281;-73
2022/09/24 08:05:14;;;;;;;7.13;3.70;;;;;;;13.80;98.67;99759.25;5021801;28;20268;-73
2022/09/24 08:07:41;;;;;;;4.37;3.93;;;;;;;13.76;99.84;99757.03;5015389;28;20190;-75
2022/09/24 08:10:08;;;;;;;4.93;4.00;;;;;;;13.42;100.00;99759.47;5007627;28;20389;-73
2022/09/24 08:12:33;;;;;;;5.57;4.10;;;;;;;13.75;100.00;99766.53;5029716;28;20257;-73
2022/09/24 08:15:01;;;;;;;4.70;4.30;;;;;;;14.09;100.00;99769.22;5010634;28;20190;-77
2022/09/24 08:17:26;;;;;;;8.70;4.97;;;;;;;14.04;100.00;99764.38;5009801;28;20190;-74
2022/09/24 08:19:55;;;;;;;8.23;5.23;;;;;;;13.93;100.00;99763.50;5015445;28;20187;-75
2022/09/24 08:22:21;;;;;;;7.07;5.83;;;;;;;13.84;100.00;99765.03;5010401;28;20293;-72
2022/09/24 08:24:49;;;;;;;6.90;5.70;;;;;;;14.01;100.00;99756.03;4998524;28;20230;-77
2022/09/24 08:27:19;;;;;;;12.57;5.67;;;;;;;13.51;100.00;99756.22;5014713;28;20191;-72
2022/09/24 08:29:44;;;;;;;6.27;5.77;;;;;;;14.05;100.00;99757.44;4999904;28;20183;-70
2022/09/24 08:32:10;;;;;;;6.73;6.10;;;;;;;14.18;100.00;99755.59;4995893;28;20229;-72
2022/09/24 08:34:39;;;;;;;9.27;6.80;;;;;;;14.60;100.00;99747.25;5014790;28;20183;-71
2022/09/24 08:37:07;;;;;;;8.00;6.27;;;;;;;14.79;96.34;99751.03;5018036;28;20236;-71
2022/09/24 08:39:33;;;;;;;7.17;6.00;;;;;;;14.98;95.33;99743.50;5018658;28;20182;-70
2022/09/24 08:42:01;;;;;;;7.10;6.40;;;;;;;14.95;95.18;99748.09;5005310;28;20321;-58
2022/09/24 08:47:36;;;;;;;8.00;6.10;;;;;;;15.58;91.32;99748.25;5026295;28;20197;-58
2022/09/24 08:50:11;;;;;;;6.33;5.83;;;;;;;15.72;89.14;99741.13;5007705;28;20207;-60
2022/09/24 08:52:53;;;;;;;7.50;6.80;;;;;;;16.09;87.67;99748.47;5008963;28;20226;-59
2022/09/24 08:55:29;;;;;;;8.07;7.23;;;;;;;15.89;88.91;99758.72;5015128;28;20190;-58
2022/09/24 08:58:11;;;;;;;9.00;7.03;;;;;;;17.94;75.66;99756.78;5021256;28;20187;-60
2022/09/24 09:01:08;;;;;;;8.17;7.00;;;;;;;19.98;58.79;99755.78;4992526;28;20226;-60
2022/09/24 09:03:57;;;;;;;7.37;6.63;;;;;;;21.89;49.23;99748.31;5002001;28;20235;-60
2022/09/24 09:06:42;;;;;;;9.90;6.47;;;;;;;22.63;45.42;99751.72;5005848;28;20278;-59
2022/09/24 09:09:14;;;;;;;8.97;6.70;;;;;;;23.01;44.61;99757.91;5028149;28;20221;-59
2022/09/24 09:11:46;;;;;;;9.17;5.73;;;;;;;24.60;40.79;99758.97;5005639;28;20233;-60
2022/09/24 09:14:16;;;;;;;6.53;5.83;;;;;;;24.52;40.09;99759.06;5001851;28;20187;-58
2022/09/24 09:17:03;;;;;;;6.35;5.75;;;;;;;24.63;39.87;99761.22;5003067;28;20270;-59
2022/09/24 09:19:35;;;;;;;6.93;5.80;;;;;;;23.72;41.06;99769.25;5010216;28;20189;-59
2022/09/24 09:22:12;;;;;;;7.53;6.07;;;;;;;22.29;46.20;99765.91;5017976;28;20296;-59
2022/09/24 09:24:48;;;;;;;7.32;6.43;;;;;;;22.13;46.48;99764.97;5002706;28;20264;-59
2022/09/24 09:27:16;;;;;;;7.13;6.53;;;;;;;22.65;45.52;99773.34;4999570;28;20214;-62
2022/09/24 09:29:49;;;;;;;6.82;6.22;;;;;;;23.01;43.28;99776.28;4997280;28;20190;-58
2022/09/24 09:32:30;;;;;;;10.10;7.22;;;;;;;22.75;44.79;99771.34;4986385;28;20722;-59
2022/09/24 09:35:19;;;;;;;9.10;7.78;;;;;;;21.16;48.19;99778.69;4998315;28;20189;-59
2022/09/24 09:38:00;;;;;;;10.60;7.05;;;;;;;21.89;47.52;99768.44;5009091;28;20264;-60
2022/09/24 09:40:42;;;;;;;9.60;7.33;;;;;;;21.58;48.64;99761.25;4994929;28;20325;-60
2022/09/24 09:43:10;;;;;;;8.40;7.43;;;;;;;20.56;51.94;99767.34;5011003;28;20260;-59
2022/09/24 09:45:54;;;;;;;7.57;6.87;;;;;;;19.60;56.95;99763.81;5011115;28;20245;-59
2022/09/24 09:48:25;;;;;;;8.17;7.37;;;;;;;19.39;59.05;99760.66;5032869;28;20196;-62
2022/09/24 09:50:58;;;;;;;8.40;7.63;;;;;;;18.77;62.01;99766.53;5011598;28;20228;-61
2022/09/24 09:53:30;;;;;;;8.27;7.47;;;;;;;19.41;59.06;99758.75;5005843;28;20194;-65
2022/09/24 09:56:01;;;;;;;10.00;7.80;;;;;;;19.65;56.47;99758.13;5009926;28;20257;-64
2022/09/24 09:58:30;;;;;;;10.50;7.47;;;;;;;19.67;56.51;99761.41;5011540;28;20214;-66
2022/09/24 10:01:17;;;;;;;9.07;8.17;;;;;;;19.34;56.90;99755.91;5008924;28;20237;-65
2022/09/24 10:03:50;;;;;;;9.07;8.10;;;;;;;18.92;59.48;99757.28;5009335;28;20206;-63
2022/09/24 10:06:30;;;;;;;144.90;14.43;;;;;;;18.50;62.62;99757.75;5009870;28;20673;-68
2022/09/24 10:09:25;;;;;;;9.00;8.13;;;;;;;18.08;63.90;99753.75;5010575;28;20206;-76
2022/09/24 10:11:50;;;;;;;12.43;7.73;;;;;;;18.22;66.29;99753.31;4956418;28;20442;-70
2022/09/24 10:14:20;;;;;;;9.03;7.80;;;;;;;18.74;65.16;99751.19;4973544;28;20551;-71
2022/09/24 10:16:58;;;;;;;9.47;7.47;;;;;;;18.90;63.94;99750.56;4973140;28;20187;-72
2022/09/24 10:19:29;;;;;;;8.93;7.60;;;;;;;18.49;61.30;99750.91;4970803;28;20187;-70
2022/09/24 10:21:56;;;;;;;8.57;7.67;;;;;;;18.48;65.42;99752.69;4963366;28;20262;-74
2022/09/24 10:24:26;;;;;;;9.93;7.77;;;;;;;18.36;63.52;99739.00;4990009;28;20603;-70
2022/09/24 10:26:52;;;;;;;10.97;8.60;;;;;;;18.11;68.97;99737.03;4973006;28;20187;-70
2022/09/24 10:32:16;;;;;;;7.97;6.97;;;;;;;17.89;65.65;99731.19;4978599;28;20598;-71
2022/09/24 10:34:42;;;;;;;9.87;7.20;;;;;;;18.01;65.50;99726.66;4974041;28;20274;-70
2022/09/24 10:37:15;;;;;;;7.77;6.83;;;;;;;18.12;66.59;99733.47;4990860;28;20274;-69
2022/09/24 10:39:43;;;;;;;9.90;7.30;;;;;;;18.66;65.01;99729.28;4993364;28;20262;-70
2022/09/24 10:42:25;;;;;;;9.07;7.07;;;;;;;18.29;65.70;99730.13;4977239;28;20230;-69
2022/09/24 10:44:52;;;;;;;8.83;6.90;;;;;;;17.85;69.07;99727.19;4997436;28;20198;-70
2022/09/24 10:47:35;;;;;;;10.13;8.23;;;;;;;18.47;67.69;99722.41;4996493;28;20615;-71
2022/09/24 10:50:29;;;;;;;14.27;9.23;;;;;;;18.90;61.66;99714.88;5027137;28;20194;-69
2022/09/24 10:53:24;;;;;;;10.43;9.40;;;;;;;18.95;60.81;99707.50;4993541;28;20221;-71
2022/09/24 10:56:08;;;;;;;9.60;8.80;;;;;;;18.46;64.52;99714.75;5027978;28;20202;-74
2022/09/24 10:59:06;;;;;;;15.53;8.27;;;;;;;18.64;64.39;99717.38;5024194;28;20190;-70
2022/09/24 11:02:02;;;;;;;9.27;7.37;;;;;;;18.85;60.92;99722.31;4986378;28;20262;-71
2022/09/24 11:04:45;;;;;;;7.90;7.17;;;;;;;18.63;58.05;99726.16;5016598;28;20316;-71
2022/09/24 11:07:36;;;;;;;9.03;6.53;;;;;;;18.21;61.40;99733.47;5008314;28;20190;-69
2022/09/24 11:10:11;;;;;;;8.13;5.93;;;;;;;18.96;59.21;99731.75;5009991;28;20277;-70
2022/09/24 11:13:00;;;;;;;10.17;6.20;;;;;;;18.95;57.78;99723.13;5016482;28;20210;-70
2022/09/24 11:15:44;;;;;;;9.50;5.80;;;;;;;19.46;55.27;99715.59;5012193;28;20714;-78
2022/09/24 11:18:39;;;;;;;7.07;6.07;;;;;;;19.58;54.09;99703.13;5014750;28;20614;-73
2022/09/24 11:21:42;;;;;;;8.20;7.50;;;;;;;19.26;56.03;99707.09;5009038;28;20228;-72
2022/09/24 11:24:39;;;;;;;8.73;7.00;;;;;;;19.48;57.19;99705.00;5013547;28;20212;-69
2022/09/24 11:27:50;;;;;;;8.03;7.07;;;;;;;18.76;61.77;99711.00;4985211;28;20194;-71
2022/09/24 11:30:23;;;;;;;8.50;6.50;;;;;;;19.19;58.99;99706.09;4997357;28;20228;-71
2022/09/24 11:33:17;;;;;;;9.47;7.40;;;;;;;19.35;57.84;99700.19;5002880;28;20183;-71
2022/09/24 11:36:14;;;;;;;8.07;7.37;;;;;;;19.13;59.87;99702.28;5019120;28;20178;-71
2022/09/24 11:39:04;;;;;;;9.93;7.20;;;;;;;18.84;60.07;99700.66;5017279;28;20209;-73
2022/09/24 11:42:02;;;;;;;9.43;6.23;;;;;;;18.21;58.81;99701.41;5010829;28;20236;-70
2022/09/24 11:45:15;;;;;;;7.83;6.33;;;;;;;18.16;59.69;99696.63;5019966;28;20214;-71
2022/09/24 11:48:00;;;;;;;7.83;5.50;;;;;;;18.13;61.73;99701.28;4999033;28;20215;-71
2022/09/24 11:50:34;;;;;;;6.47;5.30;;;;;;;18.14;59.70;99703.75;4990153;28;20231;-76
2022/09/24 11:53:13;;;;;;;8.23;5.17;;;;;;;18.48;57.73;99704.97;4995241;28;20732;-71
2022/09/24 11:55:46;;;;;;;12.10;5.50;;;;;;;19.09;55.76;99697.50;4986563;28;20229;-70
2022/09/24 11:58:19;;;;;;;9.27;4.50;;;;;;;19.10;56.24;99696.53;4982112;28;20588;-70
2022/09/24 12:01:03;;;;;;;5.70;4.43;;;;;;;19.03;53.08;99688.50;4964859;28;20377;-71
2022/09/24 12:03:40;;;;;;;4.37;3.93;;;;;;;19.31;54.61;99691.84;4983812;28;20211;-74
2022/09/24 12:06:11;;;;;;;7.30;4.37;;;;;;;18.96;56.21;99682.25;4978658;28;20210;-70
2022/09/24 12:08:56;;;;;;;6.97;5.27;;;;;;;19.18;55.17;99675.75;4990392;28;20236;-71